METAR v bližini

 

LJLJ - Ljubljana/Brnik, Slovenia
Oddaljenost od postaje: Z 41km
Podatki zajeti: 18/10/2018 07:00
Meglica, Pretežno oblačno
Meglica, Pretežno oblačno
 Veter iz smeri ZJZ
Veter: ZJZ 2 km/h
Temperatura: 12°C
Rosišče: 11°C
Vlažnost: 94%
Tlak: 1018 hPa
Stanje: Meglica
Oblačnost: Pretežno oblačno
Vidljivost: 5 km
Podrobnosti o oblakih: Rahlo oblačno 30 m
Pretežno oblačno 3048 m
2018/10/18 05:00 LJLJ 180500Z 25001KT 5000 BR FEW001 BKN100 12/11 Q1018 NOSIG
LJMB - Maribor, Slovenia
Oddaljenost od postaje: SV 63km
Podatki zajeti: 18/10/2018 07:00
Meglica, Delno oblačno
Meglica, Delno oblačno
 Veter iz smeri calm
Veter: Tišina
Temperatura: 11°C
Rosišče: 11°C
Vlažnost: 100%
Tlak: 1018 hPa
Stanje: Meglica
Oblačnost: Delno oblačno
Vidljivost: 5 km
2018/10/18 05:00 LJMB 180500Z 00000KT 5000 BR NSC 11/11 Q1018
 
LJPZ - Portoroz, Slovenia
Oddaljenost od postaje: JZ 130km
Podatki zajeti: 18/10/2018 07:00
Jasno
Jasno
 Veter iz smeri VJV
Veter: VJV 11 km/h
Temperatura: 15°C
Rosišče: 13°C
Vlažnost: 88%
Tlak: 1015 hPa
Stanje: Jasno
Vidljivost: večja od 10 km
2018/10/18 05:00 LJPZ 180500Z 12006KT CAVOK 15/13 Q1015
LJCE - Cerklje, Slovenia
Oddaljenost od postaje: VJV 49km
Podatki zajeti: 18/10/2018 07:00
Megla, Oblačno
Megla, Oblačno
 Veter iz smeri J
Veter: J 2 km/h
Temperatura: 11°C
Rosišče: 11°C
Vlažnost: 100%
Tlak: 1018 hPa
Stanje: Megla
Oblačnost: Oblačno
Vidljivost: 1 km
Podrobnosti o oblakih: Oblačno 61 m
2018/10/18 05:00 LJCE 180500Z 18001KT 0800 FG VV002 11/11 Q1018 RMK AMB
 
LDZA - Zagreb/Pleso, Croatia
Oddaljenost od postaje: VJV 96km
Podatki zajeti: 18/10/2018 07:00
Meglica, Delno oblačno
Meglica, Delno oblačno
 Veter iz smeri JZ
Veter: JZ 2 km/h
Temperatura: 11°C
Rosišče: 10°C
Vlažnost: 94%
Tlak: 1018 hPa
Stanje: Meglica
Oblačnost: Delno oblačno
Vidljivost: 4 km
2018/10/18 05:00 LDZA 180500Z 23001KT 4000 BR NSC 11/10 Q1018 NOSIG
LDRI - Rijeka/Omisalj, Croatia
Oddaljenost od postaje: JJZ 109km
Podatki zajeti: 18/10/2018 07:00
Delno oblačno
Delno oblačno
 Veter iz smeri SZ
Veter: SZ 4 km/h
Temperatura: 17°C
Rosišče: 13°C
Vlažnost: 77%
Tlak: 1015 hPa
Oblačnost: Delno oblačno
Vidljivost: 10 km
Podrobnosti o oblakih: Rahlo oblačno 1128 m
Delno oblačno 1433 m
2018/10/18 05:00 LDRI 180500Z 32002KT 9999 FEW037 SCT047 17/13 Q1015
 
LDPL - Pula, Croatia
Oddaljenost od postaje: JJZ 164km
Podatki zajeti: 18/10/2018 07:00
Jasno
Jasno
 Veter iz smeri spremenljiv
Veter: spremenljiv 2 km/h
Temperatura: 14°C
Rosišče: 12°C
Vlažnost: 88%
Tlak: 1015 hPa
Stanje: Jasno
Vidljivost: večja od 10 km
2018/10/18 05:00 LDPL 180500Z VRB01KT CAVOK 14/12 Q1015 NOSIG
LOWK - Klagenfurt(Civ/M, Austria
Oddaljenost od postaje: SZ 76km
Podatki zajeti: 18/10/2018 06:50
Meglica, Pretežno oblačno
Meglica, Pretežno oblačno
 Veter iz smeri spremenljiv
Veter: spremenljiv 2 km/h
Temperatura: 11°C
Rosišče: 10°C
Vlažnost: 94%
Tlak: 1020 hPa
Stanje: Meglica
Oblačnost: Pretežno oblačno
Vidljivost: 4 km
Podrobnosti o oblakih: Rahlo oblačno 30 m
Pretežno oblačno 91 m
Pretežno oblačno 152 m
2018/10/18 04:50 LOWK 180450Z VRB01KT 4000 BR FEW001 BKN003 BKN005 11/10 Q1020 TEMPO 5000 BKN006
 
LOWG - Graz (mil/Civ), Austria
Oddaljenost od postaje: SSV 100km
Podatki zajeti: 18/10/2018 06:50
Megla, Pretežno oblačno
Megla, Pretežno oblačno
 Veter iz smeri spremenljiv
Veter: spremenljiv 2 km/h
Temperatura: 12°C
Rosišče: 11°C
Vlažnost: 94%
Tlak: 1019 hPa
Stanje: Megla
Oblačnost: Pretežno oblačno
Vidljivost: 0 km
Podrobnosti o oblakih: Pretežno oblačno 61 m
2018/10/18 04:50 LOWG 180450Z VRB01KT 0400 R17/0550N R35/0650U FG BKN002 12/11 Q1019 TEMPO 0600 SCT001
LOWZ - Zell Am See, Austria
Oddaljenost od postaje: SZ 211km
Podatki zajeti: 31/12/2016 17:00
Ni posodobljen
Jasno
Jasno
 Veter iz smeri spremenljiv
Veter: spremenljiv 4 km/h
Temperatura: -4°C
Rosišče: -7°C
Vlažnost: 80%
Tlak: 1031 hPa
Oblačnost: Jasno
2016/12/31 16:00 LOWZ 311600Z VRB02KT 50KM SKC M04/M07 Q1031
 
LOAN - Wr.neustadt East, Austria
Oddaljenost od postaje: SSV 212km
Podatki zajeti: 17/10/2018 18:00
Ni posodobljen
Pretežno oblačno
Pretežno oblačno
 Veter iz smeri calm
Veter: Tišina
Oblačnost: Pretežno oblačno
Vidljivost: 8 km
Podrobnosti o oblakih: Delno oblačno 1829 m
Pretežno oblačno 2438 m
2018/10/17 16:00 LOAN 171600Z 00000KT 8000 SCT060SC BKN080AC
LIPQ - Ronchi Legionari, Italy
Oddaljenost od postaje: JZ 35km
Podatki zajeti: 18/10/2018 06:50
Delno oblačno
Delno oblačno
 Veter iz smeri spremenljiv
Veter: spremenljiv 4 km/h
Temperatura: 13°C
Rosišče: 12°C
Vlažnost: 94%
Tlak: 1015 hPa
Oblačnost: Delno oblačno
Vidljivost: 9 km
Podrobnosti o oblakih: Delno oblačno 2591 m
2018/10/18 04:50 LIPQ 180450Z VRB02KT 9000 SCT085 13/12 Q1015
 
LIVT - Trieste, Italy
Oddaljenost od postaje: ZJZ 109km
Podatki zajeti: 18/10/2018 06:55
Jasno
Jasno
 Veter iz smeri SV
Veter: SV 15 km/h
Temperatura: 19°C
Rosišče: 12°C
Vlažnost: 64%
Tlak: 1014 hPa
Stanje: Jasno
Vidljivost: večja od 10 km
2018/10/18 04:55 LIVT 180455Z 05008KT CAVOK 19/12 Q1014 RMK BKN BKN060 QUK / QUL / VIS MAR 15 KM VIS MIN 9999
LIVO - Tarvisio, Italy
Oddaljenost od postaje: SSZ 49km
Podatki zajeti: 17/10/2018 19:55
Ni posodobljen
Oblačno
Oblačno
 Veter iz smeri calm
Veter: Tišina
Temperatura: 10°C
Rosišče: 9°C
Vlažnost: 94%
Tlak: 1020 hPa
Oblačnost: Oblačno
Vidljivost: 10 km
Podrobnosti o oblakih: Oblačno 914 m
2018/10/17 17:55 LIVO 171755Z 00000KT 9999 OVC030 10/09 Q1020 RMK OVC VIS MIN 9999
 
LIPZ - Venezia/Tessera, Italy
Oddaljenost od postaje: ZJZ 217km
Podatki zajeti: 18/10/2018 06:50
Jasno
Jasno
 Veter iz smeri Z
Veter: Z 6 km/h
Temperatura: 14°C
Rosišče: 13°C
Vlažnost: 94%
Tlak: 1016 hPa
Stanje: Jasno
Vidljivost: večja od 10 km
2018/10/18 04:50 LIPZ 180450Z 28003KT 250V320 CAVOK 14/13 Q1016 NOSIG
LHSM - Balaton, Hungary
Oddaljenost od postaje: VSV 177km
Podatki zajeti: 18/10/2018 06:45
Meglica, Delno oblačno
Meglica, Delno oblačno
 Veter iz smeri ZSZ
Veter: ZSZ 4 km/h
Temperatura: 9°C
Rosišče: 9°C
Vlažnost: 100%
Tlak: 1018 hPa
Stanje: Meglica
Oblačnost: Delno oblačno
Vidljivost: 4 km
2018/10/18 04:45 LHSM 180445Z 30002KT 4000 BR NSC 09/09 Q1018